Time;durP1;ratioP1;P1;durP2;ratioP2;P2;SDS_P1;SDS_P2;PMS_P1;PMS_P2;Temp;Humidity;BMP_temperature;BMP_pressure;BME280_temperature;BME280_humidity;BME280_pressure;Samples;Min_cycle;Max_cycle;Signal;HPM_P1;HPM_P2
2021/08/28 14:02:57;;;;;;;3.23;3.00;;;;;;;19.96;71.41;99448.19;5087946;27;1984550;-73
2021/08/28 14:05:25;;;;;;;3.53;3.23;;;;;;;20.04;71.58;99442.81;5129302;28;20432;-72
2021/08/28 14:07:51;;;;;;;3.50;3.20;;;;;;;20.10;71.20;99439.47;5129936;28;20431;-72
2021/08/28 14:10:18;;;;;;;3.90;3.13;;;;;;;20.70;68.98;99443.50;5129985;28;20428;-73
2021/08/28 14:12:45;;;;;;;4.20;3.90;;;;;;;21.54;67.28;99444.78;5129712;28;20436;-73
2021/08/28 14:15:13;;;;;;;3.10;2.80;;;;;;;22.11;64.57;99435.91;5129527;28;20945;-73
2021/08/28 14:17:40;;;;;;;3.40;3.10;;;;;;;22.12;64.80;99438.50;5129873;28;20908;-72
2021/08/28 14:20:14;;;;;;;4.13;2.90;;;;;;;23.24;60.30;99439.78;5129884;28;20427;-71
2021/08/28 14:22:40;;;;;;;3.30;3.00;;;;;;;22.97;60.05;99429.16;5129684;28;20439;-72
2021/08/28 14:25:07;;;;;;;3.33;3.10;;;;;;;22.25;61.58;99427.06;5129479;28;20992;-73
2021/08/28 14:27:34;;;;;;;3.97;3.67;;;;;;;22.18;63.24;99429.59;5128772;28;20448;-72
2021/08/28 14:30:01;;;;;;;3.80;3.40;;;;;;;22.02;62.92;99426.81;5128983;28;20450;-72
2021/08/28 14:32:27;;;;;;;3.97;3.50;;;;;;;22.32;61.91;99421.75;5129116;28;20475;-71
2021/08/28 14:34:54;;;;;;;4.40;4.10;;;;;;;21.97;65.75;99429.19;5128924;28;20460;-75
2021/08/28 14:37:22;;;;;;;3.40;3.10;;;;;;;21.27;67.29;99427.47;5128822;28;20448;-71
2021/08/28 14:39:49;;;;;;;4.63;4.13;;;;;;;21.10;70.49;99417.44;5128494;28;20699;-72
2021/08/28 14:42:15;;;;;;;3.70;3.30;;;;;;;21.44;68.84;99423.84;5128753;28;20479;-72
2021/08/28 14:44:42;;;;;;;3.67;3.37;;;;;;;21.31;69.70;99426.13;5127988;28;20420;-73
2021/08/28 14:47:09;;;;;;;6.40;4.07;;;;;;;21.44;69.28;99428.47;5128442;28;20446;-73
2021/08/28 14:49:36;;;;;;;4.20;3.70;;;;;;;21.61;68.57;99426.66;5129297;28;20814;-73
2021/08/28 14:52:03;;;;;;;3.70;3.40;;;;;;;21.24;67.98;99414.13;5128553;28;20444;-73
2021/08/28 14:54:31;;;;;;;4.80;4.40;;;;;;;21.08;69.47;99414.88;5128777;28;20451;-72
2021/08/28 14:56:58;;;;;;;3.90;3.50;;;;;;;21.73;66.25;99424.47;5128332;28;20527;-74
2021/08/28 14:59:25;;;;;;;3.70;3.20;;;;;;;22.01;65.46;99427.84;5128082;28;20436;-73
2021/08/28 15:01:52;;;;;;;6.20;4.30;;;;;;;21.58;66.47;99422.38;5126082;28;20519;-72
2021/08/28 15:04:19;;;;;;;3.80;3.40;;;;;;;20.71;69.73;99434.25;5113371;28;20521;-73
2021/08/28 15:06:45;;;;;;;4.20;3.57;;;;;;;20.28;74.96;99435.88;5114568;28;20786;-73
2021/08/28 15:09:12;;;;;;;11.80;6.20;;;;;;;19.87;81.05;99438.16;5114443;28;20746;-73
2021/08/28 15:11:41;;;;;;;5.13;4.67;;;;;;;19.91;82.92;99434.13;5114054;28;20439;-71
2021/08/28 15:14:07;;;;;;;5.00;4.47;;;;;;;19.99;83.50;99434.22;5114071;28;20436;-73
2021/08/28 15:16:34;;;;;;;6.80;4.47;;;;;;;19.86;86.66;99447.38;5114045;28;20476;-73
2021/08/28 15:19:01;;;;;;;4.30;3.90;;;;;;;20.01;84.10;99443.09;5114282;28;20417;-72
2021/08/28 15:21:27;;;;;;;4.93;4.50;;;;;;;20.29;82.75;99437.63;5113839;28;21000;-73
2021/08/28 15:23:54;;;;;;;7.03;5.03;;;;;;;20.30;79.90;99436.59;5114116;28;20472;-73
2021/08/28 15:26:21;;;;;;;8.30;7.50;;;;;;;20.22;80.40;99451.03;5113468;28;20473;-73
2021/08/28 15:28:49;;;;;;;4.80;4.30;;;;;;;20.12;79.79;99450.22;5113703;28;20417;-73
2021/08/28 15:31:15;;;;;;;5.87;4.37;;;;;;;20.00;79.35;99446.84;5114025;28;20530;-73
2021/08/28 15:33:42;;;;;;;4.50;4.10;;;;;;;20.18;80.28;99449.63;5113716;28;20428;-73
2021/08/28 15:36:09;;;;;;;5.07;3.87;;;;;;;20.18;77.87;99445.00;5113758;28;20447;-73
2021/08/28 15:38:36;;;;;;;4.00;3.60;;;;;;;20.05;76.62;99454.59;5113919;28;20757;-73
2021/08/28 15:41:03;;;;;;;3.63;3.03;;;;;;;20.08;76.13;99449.69;5113804;28;20899;-73
2021/08/28 15:43:29;;;;;;;4.53;4.03;;;;;;;20.28;76.85;99446.81;5113913;28;20457;-73
2021/08/28 15:45:57;;;;;;;3.33;3.03;;;;;;;20.85;74.02;99444.66;5113551;28;20943;-74
2021/08/28 15:48:24;;;;;;;4.03;3.67;;;;;;;20.76;72.60;99451.06;5113903;28;20910;-73
2021/08/28 15:50:51;;;;;;;4.47;3.20;;;;;;;20.42;74.07;99460.81;5113465;28;20437;-74
2021/08/28 15:53:20;;;;;;;3.40;3.10;;;;;;;20.61;71.98;99453.50;5113308;28;20410;-72
2021/08/28 15:55:50;;;;;;;3.23;2.97;;;;;;;22.13;67.05;99456.66;5113542;28;20441;-73
2021/08/28 15:58:17;;;;;;;2.93;2.53;;;;;;;23.95;58.75;99448.19;5114440;28;20428;-71
2021/08/28 16:00:44;;;;;;;2.80;2.40;;;;;;;24.94;53.08;99449.25;5114386;28;20506;-73
2021/08/28 16:03:12;;;;;;;2.53;2.33;;;;;;;24.29;56.15;99452.47;5113944;28;20451;-72
2021/08/28 16:05:39;;;;;;;2.70;2.50;;;;;;;24.95;52.43;99439.09;5114259;28;20512;-72
2021/08/28 16:08:06;;;;;;;2.30;2.10;;;;;;;24.87;52.08;99458.44;5114568;28;20453;-72
2021/08/28 16:10:34;;;;;;;2.30;1.87;;;;;;;23.87;53.79;99460.06;5114537;28;20437;-73
2021/08/28 16:13:01;;;;;;;2.23;2.03;;;;;;;22.48;58.11;99461.06;5114167;28;20759;-73
2021/08/28 16:15:29;;;;;;;2.27;1.80;;;;;;;21.36;62.60;99469.47;5112745;28;20875;-73
2021/08/28 16:17:58;;;;;;;3.17;2.87;;;;;;;23.16;58.89;99464.53;5114065;28;20503;-73
2021/08/28 16:20:26;;;;;;;1.67;1.57;;;;;;;24.06;54.27;99463.41;5114274;28;21099;-72
2021/08/28 16:22:53;;;;;;;1.90;1.80;;;;;;;23.71;55.69;99471.09;5113578;28;20488;-73
2021/08/28 16:25:20;;;;;;;4.50;2.37;;;;;;;22.80;58.91;99461.25;5113241;28;20508;-73
2021/08/28 16:27:47;;;;;;;2.33;2.13;;;;;;;21.91;61.71;99471.84;5113659;28;20429;-73
2021/08/28 16:30:14;;;;;;;3.27;2.97;;;;;;;21.02;66.45;99468.38;5113066;28;20443;-73
2021/08/28 16:32:40;;;;;;;4.23;3.20;;;;;;;20.60;69.21;99474.53;5113378;28;20528;-73
2021/08/28 16:35:08;;;;;;;9.13;7.00;;;;;;;20.76;68.88;99468.34;5113310;28;20528;-73
2021/08/28 16:37:36;;;;;;;2.67;2.47;;;;;;;20.76;66.51;99479.28;5113160;28;20516;-74
2021/08/28 16:40:04;;;;;;;2.83;2.10;;;;;;;20.44;68.46;99479.78;5113160;28;20421;-74
2021/08/28 16:42:32;;;;;;;3.13;2.50;;;;;;;20.56;70.12;99477.69;5112670;28;20461;-73
2021/08/28 16:44:58;;;;;;;3.20;2.90;;;;;;;20.75;71.14;99476.69;5112528;28;20445;-73
2021/08/28 16:47:25;;;;;;;3.90;3.43;;;;;;;20.76;71.46;99482.03;5112688;28;20510;-73
2021/08/28 16:49:54;;;;;;;2.40;2.20;;;;;;;20.91;67.37;99467.78;5112539;28;20443;-73
2021/08/28 16:52:21;;;;;;;2.10;1.90;;;;;;;20.69;68.01;99466.38;5112642;28;20429;-74
2021/08/28 16:54:49;;;;;;;5.40;4.93;;;;;;;20.76;69.46;99473.81;5113010;28;20887;-73
2021/08/28 16:57:16;;;;;;;3.60;2.70;;;;;;;20.49;70.41;99477.47;5113178;28;20428;-73
2021/08/28 16:59:42;;;;;;;2.40;2.20;;;;;;;20.28;71.76;99476.88;5112625;28;20527;-73
2021/08/28 17:02:09;;;;;;;3.27;2.97;;;;;;;19.96;72.79;99484.56;5112456;28;20989;-73
2021/08/28 17:04:36;;;;;;;3.63;3.33;;;;;;;19.79;73.96;99483.50;5112983;28;20421;-73
2021/08/28 17:07:02;;;;;;;4.50;4.10;;;;;;;19.65;74.59;99486.72;5112918;28;20539;-73
2021/08/28 17:09:29;;;;;;;3.70;3.40;;;;;;;19.41;75.85;99491.81;5112544;28;20429;-74
2021/08/28 17:11:57;;;;;;;3.80;3.40;;;;;;;19.36;72.93;99490.38;5112366;28;20468;-73
2021/08/28 17:14:23;;;;;;;2.83;2.33;;;;;;;19.34;72.10;99495.13;5112218;28;20524;-73
2021/08/28 17:16:50;;;;;;;3.90;2.00;;;;;;;19.35;72.16;99494.09;5111993;28;20489;-73
2021/08/28 17:19:18;;;;;;;2.87;2.67;;;;;;;19.18;73.05;99483.97;5112250;28;20501;-72
2021/08/28 17:21:45;;;;;;;4.10;1.90;;;;;;;19.13;73.76;99483.53;5112355;28;20846;-73
2021/08/28 17:24:12;;;;;;;10.20;9.00;;;;;;;19.12;74.10;99484.56;5112423;28;20437;-73
2021/08/28 17:26:38;;;;;;;2.40;2.20;;;;;;;18.94;74.77;99482.56;5112216;28;20852;-73
2021/08/28 17:29:06;;;;;;;3.38;3.08;;;;;;;18.85;76.03;99483.44;5112513;28;20202;-73
2021/08/28 17:31:33;;;;;;;3.10;2.80;;;;;;;18.82;76.65;99478.28;5111855;28;20688;-73
2021/08/28 17:34:00;;;;;;;2.87;2.30;;;;;;;18.87;76.61;99486.88;5111570;28;20432;-73
2021/08/28 17:36:26;;;;;;;4.23;3.00;;;;;;;18.70;77.78;99482.13;5111551;28;20505;-73
2021/08/28 17:38:53;;;;;;;3.17;2.70;;;;;;;18.69;78.19;99492.16;5111966;28;20516;-74
2021/08/28 17:41:20;;;;;;;2.97;2.67;;;;;;;18.43;79.17;99491.88;5111867;28;20443;-73
2021/08/28 17:43:46;;;;;;;2.90;2.70;;;;;;;18.51;78.83;99499.34;5111601;28;20431;-73
2021/08/28 17:46:14;;;;;;;3.70;3.40;;;;;;;18.30;80.32;99497.59;5111701;28;20545;-73
2021/08/28 17:48:41;;;;;;;3.10;2.55;;;;;;;18.32;78.89;99503.78;5111759;28;20439;-73
2021/08/28 17:51:09;;;;;;;4.10;2.85;;;;;;;17.98;81.11;99506.00;5111854;28;20547;-72
2021/08/28 17:53:36;;;;;;;3.72;2.30;;;;;;;18.01;80.51;99503.00;5111730;28;20197;-73
2021/08/28 17:56:04;;;;;;;2.30;2.10;;;;;;;17.89;81.67;99510.41;5111547;28;20248;-73
2021/08/28 17:58:32;;;;;;;2.58;2.30;;;;;;;17.99;81.72;99507.72;5111738;28;20716;-72
2021/08/28 18:00:59;;;;;;;3.83;2.47;;;;;;;17.89;81.86;99506.84;5111628;28;20206;-73
2021/08/28 18:03:27;;;;;;;3.42;2.95;;;;;;;17.81;82.57;99507.50;5112350;28;20206;-72
2021/08/28 18:05:54;;;;;;;3.20;2.95;;;;;;;17.85;82.73;99508.97;5112202;28;20614;-73
2021/08/28 18:08:21;;;;;;;4.00;3.65;;;;;;;17.77;83.85;99507.88;5112021;28;20276;-73
2021/08/28 18:10:48;;;;;;;3.38;3.05;;;;;;;17.77;83.41;99505.16;5112325;28;20190;-73
2021/08/28 18:13:14;;;;;;;3.10;2.80;;;;;;;17.82;83.84;99508.34;5112230;28;20179;-74
2021/08/28 18:15:41;;;;;;;3.45;2.80;;;;;;;17.60;86.00;99510.25;5111947;28;20210;-73
2021/08/28 18:18:08;;;;;;;3.97;3.67;;;;;;;17.35;89.72;99517.00;5112249;28;20264;-73
2021/08/28 18:20:36;;;;;;;3.85;3.33;;;;;;;17.35;90.68;99508.84;5112538;28;20273;-73
2021/08/28 18:23:03;;;;;;;3.55;3.25;;;;;;;17.34;91.60;99520.72;5112115;28;20203;-72
2021/08/28 18:25:30;;;;;;;13.15;9.05;;;;;;;17.37;93.42;99514.16;5112487;28;20287;-72
2021/08/28 18:27:57;;;;;;;4.05;3.10;;;;;;;17.14;95.85;99514.31;5112625;28;20646;-72
2021/08/28 18:30:27;;;;;;;3.60;3.30;;;;;;;17.09;97.56;99522.00;5112284;28;20293;-72
2021/08/28 18:32:54;;;;;;;3.58;2.80;;;;;;;16.96;98.83;99524.91;5112309;28;20291;-72
2021/08/28 18:35:21;;;;;;;5.15;4.68;;;;;;;16.82;100.00;99531.53;5112620;28;20217;-73
2021/08/28 18:37:49;;;;;;;5.50;3.80;;;;;;;16.72;100.00;99537.84;5113472;28;20698;-72
2021/08/28 18:40:16;;;;;;;4.13;3.35;;;;;;;16.74;100.00;99533.16;5116256;28;20655;-72
2021/08/28 18:42:42;;;;;;;3.90;3.50;;;;;;;16.75;100.00;99534.88;5116241;28;20295;-73
2021/08/28 18:45:10;;;;;;;7.32;6.18;;;;;;;16.66;100.00;99531.06;5115731;28;20240;-71
2021/08/28 18:47:37;;;;;;;5.15;4.18;;;;;;;16.48;100.00;99536.19;5115471;28;20192;-72
2021/08/28 18:50:04;;;;;;;4.30;3.85;;;;;;;16.68;100.00;99534.50;5115876;28;20290;-72
2021/08/28 18:52:31;;;;;;;4.45;4.05;;;;;;;16.61;100.00;99545.03;5116211;28;20636;-74
2021/08/28 18:54:59;;;;;;;5.30;3.90;;;;;;;16.36;100.00;99554.38;5115918;28;20628;-73
2021/08/28 18:57:26;;;;;;;4.88;4.20;;;;;;;16.36;100.00;99550.81;5115903;28;20203;-74
2021/08/28 18:59:52;;;;;;;5.78;5.18;;;;;;;16.34;100.00;99561.78;5115684;28;20183;-73
2021/08/28 19:02:19;;;;;;;5.40;4.65;;;;;;;16.22;100.00;99560.97;5115372;28;20704;-72
2021/08/28 19:04:45;;;;;;;4.57;4.18;;;;;;;16.29;100.00;99561.31;5115401;28;20199;-73
2021/08/28 19:07:12;;;;;;;5.95;5.35;;;;;;;16.30;100.00;99562.19;5115410;28;20586;-73
2021/08/28 19:09:39;;;;;;;7.93;4.50;;;;;;;16.29;100.00;99565.91;5115825;28;20212;-72
2021/08/28 19:12:08;;;;;;;4.70;4.30;;;;;;;16.25;100.00;99570.72;5114242;28;20238;-75
2021/08/28 19:14:35;;;;;;;8.77;4.60;;;;;;;16.14;100.00;99568.88;5115362;28;20179;-73
2021/08/28 19:17:01;;;;;;;4.85;4.35;;;;;;;16.22;100.00;99569.13;5115350;28;20528;-72
2021/08/28 19:19:28;;;;;;;5.93;4.55;;;;;;;16.07;100.00;99574.94;5115293;28;20348;-72
2021/08/28 19:21:55;;;;;;;4.97;4.40;;;;;;;16.09;100.00;99570.25;5115307;28;20540;-72
2021/08/28 19:24:21;;;;;;;9.55;6.57;;;;;;;16.21;100.00;99563.78;5115095;28;20541;-73
2021/08/28 19:26:48;;;;;;;4.65;4.05;;;;;;;16.15;100.00;99577.91;5114682;28;20592;-73
2021/08/28 19:29:16;;;;;;;4.65;4.15;;;;;;;15.96;100.00;99582.09;5115064;28;20365;-73
2021/08/28 19:31:43;;;;;;;5.35;4.85;;;;;;;15.96;100.00;99584.81;5115001;28;20612;-73
2021/08/28 19:34:09;;;;;;;4.88;4.03;;;;;;;15.77;100.00;99592.72;5114565;28;20205;-72
2021/08/28 19:36:36;;;;;;;3.85;3.45;;;;;;;15.82;100.00;99590.50;5114543;28;20203;-73
2021/08/28 19:39:04;;;;;;;4.70;3.95;;;;;;;15.81;100.00;99591.50;5114306;28;20275;-74
2021/08/28 19:41:30;;;;;;;4.63;4.20;;;;;;;15.98;100.00;99590.13;5114873;28;20597;-72
2021/08/28 19:43:57;;;;;;;5.63;4.07;;;;;;;15.87;100.00;99593.69;5114521;28;20219;-73
2021/08/28 19:46:25;;;;;;;6.82;5.03;;;;;;;15.92;100.00;99596.03;5115230;28;20701;-73
2021/08/28 19:48:51;;;;;;;5.95;4.68;;;;;;;15.85;100.00;99590.22;5114421;28;20364;-73
2021/08/28 19:51:18;;;;;;;6.43;4.53;;;;;;;15.89;100.00;99585.44;5114299;28;20200;-74
2021/08/28 19:53:45;;;;;;;7.20;5.35;;;;;;;15.82;100.00;99585.91;5114209;28;20183;-73
2021/08/28 19:56:14;;;;;;;4.30;3.90;;;;;;;15.83;100.00;99592.22;5114390;28;20194;-73
2021/08/28 19:58:41;;;;;;;7.13;4.88;;;;;;;15.68;100.00;99596.13;5114392;28;20207;-73
2021/08/28 20:01:07;;;;;;;5.35;4.28;;;;;;;15.58;100.00;99595.97;5113846;28;20261;-73
2021/08/28 20:03:35;;;;;;;5.90;5.30;;;;;;;15.54;100.00;99600.78;5113751;28;20203;-73
2021/08/28 20:06:02;;;;;;;13.38;10.98;;;;;;;15.49;100.00;99594.00;5113484;28;20270;-73
2021/08/28 20:08:29;;;;;;;7.15;5.40;;;;;;;15.57;100.00;99592.41;5113452;28;20195;-73
2021/08/28 20:10:55;;;;;;;5.07;4.60;;;;;;;15.51;100.00;99592.91;5113997;28;20179;-73
2021/08/28 20:13:22;;;;;;;24.13;15.98;;;;;;;15.59;100.00;99592.28;5113498;28;20275;-73
2021/08/28 20:15:49;;;;;;;6.45;4.90;;;;;;;15.55;100.00;99594.38;5113413;28;20638;-73
2021/08/28 20:18:15;;;;;;;20.30;18.15;;;;;;;15.61;100.00;99588.47;5113424;28;20190;-73
2021/08/28 20:20:44;;;;;;;9.80;7.10;;;;;;;15.64;100.00;99593.66;5113012;28;20190;-73
2021/08/28 20:23:11;;;;;;;5.47;4.97;;;;;;;15.83;100.00;99593.09;5113439;28;20226;-73
2021/08/28 20:25:37;;;;;;;11.18;6.15;;;;;;;15.90;100.00;99596.19;5113617;28;20210;-73
2021/08/28 20:28:04;;;;;;;5.70;5.20;;;;;;;15.94;100.00;99596.78;5113526;28;20217;-71
2021/08/28 20:30:31;;;;;;;5.38;4.82;;;;;;;15.79;100.00;99607.03;5113042;28;20292;-72
2021/08/28 20:32:57;;;;;;;5.10;4.60;;;;;;;15.62;100.00;99600.19;5113622;28;20179;-72
2021/08/28 20:35:27;;;;;;;6.25;4.75;;;;;;;15.47;100.00;99596.84;5113387;28;20196;-74
2021/08/28 20:37:56;;;;;;;6.90;6.20;;;;;;;15.61;100.00;99596.59;5112715;28;20195;-73
2021/08/28 20:40:23;;;;;;;7.00;6.20;;;;;;;15.69;100.00;99581.56;5112910;28;20539;-73
2021/08/28 20:42:50;;;;;;;10.43;9.23;;;;;;;15.80;100.00;99582.47;5112377;28;20229;-72
2021/08/28 20:45:17;;;;;;;6.70;5.00;;;;;;;15.62;100.00;99586.63;5113215;28;20187;-72
2021/08/28 20:47:44;;;;;;;5.45;4.95;;;;;;;15.73;100.00;99591.22;5112812;28;20179;-73
2021/08/28 20:50:11;;;;;;;5.80;5.28;;;;;;;15.89;100.00;99585.44;5112588;28;20209;-71
2021/08/28 20:52:39;;;;;;;6.72;4.70;;;;;;;15.75;100.00;99590.13;5112070;28;20191;-72
2021/08/28 20:55:08;;;;;;;6.93;4.90;;;;;;;15.45;100.00;99587.97;5112885;28;20229;-72
2021/08/28 20:57:35;;;;;;;5.45;4.95;;;;;;;15.55;100.00;99583.50;5112251;28;20188;-72
2021/08/28 21:00:02;;;;;;;6.15;4.93;;;;;;;15.42;100.00;99593.59;5111832;28;20187;-71
2021/08/28 21:02:29;;;;;;;5.55;4.55;;;;;;;15.50;100.00;99590.31;5112236;28;20275;-71
2021/08/28 21:04:55;;;;;;;6.55;5.45;;;;;;;15.48;100.00;99587.69;5112606;28;20361;-72
2021/08/28 21:07:22;;;;;;;5.50;5.00;;;;;;;15.58;100.00;99591.44;5112470;28;20598;-72
2021/08/28 21:09:49;;;;;;;5.05;4.65;;;;;;;15.65;100.00;99583.66;5112861;28;20282;-72
2021/08/28 21:12:17;;;;;;;5.72;3.83;;;;;;;15.80;100.00;99589.75;5112451;28;20237;-73
2021/08/28 21:14:44;;;;;;;5.85;4.70;;;;;;;15.55;100.00;99594.38;5112526;28;20189;-72
2021/08/28 21:17:10;;;;;;;6.03;5.40;;;;;;;15.51;100.00;99595.63;5112556;28;20207;-72
2021/08/28 21:19:37;;;;;;;5.57;5.03;;;;;;;15.36;100.00;99588.69;5112751;28;20264;-73
2021/08/28 21:22:04;;;;;;;5.18;4.68;;;;;;;15.51;100.00;99594.72;5112871;28;20668;-73
2021/08/28 21:24:31;;;;;;;7.38;4.97;;;;;;;15.52;100.00;99601.91;5112625;28;20759;-73
2021/08/28 21:26:57;;;;;;;5.53;5.03;;;;;;;15.52;100.00;99602.75;5112054;28;20241;-73
2021/08/28 21:29:25;;;;;;;5.40;4.78;;;;;;;15.53;100.00;99588.19;5112313;28;20637;-73
2021/08/28 21:31:53;;;;;;;5.97;5.32;;;;;;;15.62;100.00;99589.31;5112278;28;20617;-72
2021/08/28 21:34:19;;;;;;;5.70;5.20;;;;;;;15.79;100.00;99590.75;5111669;28;20184;-73
2021/08/28 21:36:46;;;;;;;6.65;5.20;;;;;;;15.96;100.00;99598.38;5093835;28;20235;-73
2021/08/28 21:39:13;;;;;;;6.20;5.15;;;;;;;15.94;100.00;99594.06;5112341;28;20195;-73
2021/08/28 21:41:40;;;;;;;9.27;7.32;;;;;;;16.05;100.00;99599.50;5112073;28;20188;-73
2021/08/28 21:44:06;;;;;;;10.48;6.25;;;;;;;15.92;100.00;99605.06;5112068;28;20402;-72
2021/08/28 21:46:34;;;;;;;10.35;6.63;;;;;;;15.92;100.00;99601.47;5112398;28;20277;-72
2021/08/28 21:49:01;;;;;;;9.43;7.75;;;;;;;15.85;100.00;99606.53;5113020;28;20193;-72
2021/08/28 21:51:27;;;;;;;8.38;6.10;;;;;;;15.87;100.00;99611.84;5112136;28;20187;-73
2021/08/28 21:53:54;;;;;;;7.78;5.78;;;;;;;15.63;100.00;99605.50;5111936;28;20619;-73
2021/08/28 21:56:21;;;;;;;7.75;6.45;;;;;;;15.60;100.00;99608.47;5111658;28;20187;-74
2021/08/28 21:58:48;;;;;;;5.07;4.57;;;;;;;15.92;100.00;99606.91;5111784;28;20283;-73
2021/08/28 22:01:15;;;;;;;7.13;6.35;;;;;;;15.75;100.00;99609.13;5111028;28;20308;-73
2021/08/28 22:03:43;;;;;;;7.47;5.22;;;;;;;15.78;100.00;99611.59;5111769;28;20214;-73
2021/08/28 22:06:09;;;;;;;8.35;5.75;;;;;;;15.79;100.00;99617.91;5111614;28;20274;-73
2021/08/28 22:08:36;;;;;;;9.95;6.40;;;;;;;15.90;100.00;99612.47;5111790;28;20648;-73
2021/08/28 22:11:03;;;;;;;7.47;6.55;;;;;;;15.98;100.00;99614.56;5111165;28;20198;-74
2021/08/28 22:13:29;;;;;;;7.00;6.15;;;;;;;16.20;100.00;99610.97;5114633;28;20238;-72
2021/08/28 22:15:56;;;;;;;7.63;6.90;;;;;;;16.34;100.00;99607.13;5115754;28;20286;-73
2021/08/28 22:18:22;;;;;;;7.60;6.90;;;;;;;16.28;100.00;99611.22;5115747;28;20193;-72
2021/08/28 22:20:51;;;;;;;17.05;14.40;;;;;;;16.33;100.00;99602.69;5116021;28;20195;-73
2021/08/28 22:23:17;;;;;;;9.10;6.93;;;;;;;16.35;100.00;99603.41;5115177;28;20218;-72
2021/08/28 22:25:45;;;;;;;8.60;7.30;;;;;;;16.41;99.50;99605.63;5115567;28;20180;-73
2021/08/28 22:28:12;;;;;;;10.93;8.60;;;;;;;16.29;99.84;99602.06;5115957;28;20540;-73
2021/08/28 22:30:39;;;;;;;6.20;5.60;;;;;;;16.32;100.00;99600.97;5115265;28;20237;-74
2021/08/28 22:33:05;;;;;;;53.10;46.72;;;;;;;16.16;100.00;99604.06;5115741;28;20186;-71
2021/08/28 22:35:32;;;;;;;7.88;7.10;;;;;;;16.40;99.54;99606.63;5116262;28;20708;-72
2021/08/28 22:38:00;;;;;;;5.82;5.32;;;;;;;16.41;99.48;99597.47;5116428;28;20190;-74
2021/08/28 22:40:27;;;;;;;7.43;6.63;;;;;;;16.28;100.00;99611.22;5116031;28;20693;-75
2021/08/28 22:42:54;;;;;;;8.15;6.03;;;;;;;16.27;100.00;99607.63;5115531;28;20199;-73
2021/08/28 22:45:20;;;;;;;6.55;5.95;;;;;;;16.24;100.00;99604.31;5115647;28;20271;-74
2021/08/28 22:47:47;;;;;;;8.60;7.70;;;;;;;15.86;100.00;99600.13;5114619;28;20203;-74
2021/08/28 22:50:14;;;;;;;7.80;7.00;;;;;;;16.09;100.00;99598.25;5115116;28;20226;-72
2021/08/28 22:52:40;;;;;;;7.78;6.85;;;;;;;15.94;100.00;99603.09;5114893;28;20191;-74
2021/08/28 22:55:10;;;;;;;7.88;7.18;;;;;;;15.96;100.00;99598.38;5114601;28;20234;-73
2021/08/28 22:57:37;;;;;;;8.90;8.00;;;;;;;16.01;100.00;99606.19;5114700;28;20286;-72
2021/08/28 23:00:04;;;;;;;8.52;7.22;;;;;;;16.08;100.00;99601.09;5114777;28;20190;-72
2021/08/28 23:02:31;;;;;;;8.20;7.50;;;;;;;16.07;100.00;99594.81;5114734;28;20242;-73
2021/08/28 23:04:57;;;;;;;8.73;7.82;;;;;;;16.33;100.00;99602.69;5114950;28;20534;-73
2021/08/28 23:07:24;;;;;;;7.78;7.05;;;;;;;16.32;100.00;99596.38;5114890;28;20207;-73
2021/08/28 23:09:51;;;;;;;9.02;6.82;;;;;;;16.54;97.80;99603.63;5114635;28;20270;-72
2021/08/28 23:12:19;;;;;;;10.07;8.77;;;;;;;16.31;99.31;99591.94;5114348;28;20242;-73
2021/08/28 23:14:46;;;;;;;7.65;6.80;;;;;;;16.30;100.00;99601.06;5114918;28;20267;-73
2021/08/28 23:17:12;;;;;;;10.43;8.20;;;;;;;16.43;99.50;99590.06;5114849;28;20189;-73
2021/08/28 23:19:39;;;;;;;8.95;7.70;;;;;;;16.57;97.72;99578.06;5114724;28;20199;-73
2021/08/28 23:22:08;;;;;;;9.35;6.97;;;;;;;16.55;97.39;99594.50;5115084;28;20186;-73
2021/08/28 23:24:35;;;;;;;7.85;6.93;;;;;;;16.54;98.23;99583.75;5115308;28;20219;-72
2021/08/28 23:27:02;;;;;;;8.10;7.25;;;;;;;16.29;100.00;99585.78;5115143;28;20235;-72
2021/08/28 23:29:30;;;;;;;10.13;8.00;;;;;;;16.34;100.00;99579.97;5115371;28;20286;-73
2021/08/28 23:31:56;;;;;;;9.05;7.80;;;;;;;16.34;100.00;99579.97;5114275;28;20280;-74
2021/08/28 23:34:23;;;;;;;8.70;7.80;;;;;;;16.51;100.00;99575.84;5115191;28;20316;-73
2021/08/28 23:36:49;;;;;;;9.48;8.57;;;;;;;16.49;98.59;99572.41;5114931;28;20559;-73
2021/08/28 23:39:16;;;;;;;9.88;8.80;;;;;;;16.21;100.00;99574.66;5114496;28;20228;-73
2021/08/28 23:41:43;;;;;;;11.15;9.45;;;;;;;16.19;100.00;99579.34;5114845;28;20262;-73
2021/08/28 23:44:09;;;;;;;17.88;9.07;;;;;;;16.20;100.00;99575.66;5114681;28;20235;-72
2021/08/28 23:46:37;;;;;;;9.75;8.13;;;;;;;16.04;100.00;99574.19;5114430;28;20187;-72
2021/08/28 23:49:04;;;;;;;10.63;9.13;;;;;;;16.11;100.00;99573.69;5114287;28;20188;-72
2021/08/28 23:51:31;;;;;;;9.40;8.43;;;;;;;15.98;100.00;99568.41;5114616;28;20555;-72
2021/08/28 23:53:59;;;;;;;9.10;8.15;;;;;;;16.02;100.00;99570.72;5114190;28;20179;-72
2021/08/28 23:56:25;;;;;;;9.30;8.40;;;;;;;16.07;100.00;99570.34;5114483;28;20223;-73
2021/08/28 23:58:52;;;;;;;8.90;8.00;;;;;;;15.96;100.00;99565.78;5114027;28;20195;-73
